Time;durP1;ratioP1;P1;durP2;ratioP2;P2;SDS_P1;SDS_P2;PMS_P1;PMS_P2;Temp;Humidity;BMP_temperature;BMP_pressure;BME280_temperature;BME280_humidity;BME280_pressure;Samples;Min_cycle;Max_cycle;Signal;HPM_P1;HPM_P2
2023/10/23 00:00:29;;;;;;;7.50;4.38;;;6.50;99.90;;;;;;5076801;28;20062;-70
2023/10/23 00:02:58;;;;;;;8.57;4.88;;;6.50;99.90;;;;;;5076462;28;20101;-70
2023/10/23 00:05:25;;;;;;;8.65;5.20;;;6.40;99.90;;;;;;5077210;28;20090;-70
2023/10/23 00:07:51;;;;;;;9.80;5.05;;;6.40;99.90;;;;;;5077006;28;20048;-70
2023/10/23 00:10:18;;;;;;;10.90;4.85;;;6.40;99.90;;;;;;5076415;28;20048;-70
2023/10/23 00:12:45;;;;;;;8.85;4.72;;;6.40;99.90;;;;;;5076761;28;20048;-71
2023/10/23 00:15:13;;;;;;;10.65;4.65;;;6.30;99.90;;;;;;5076558;28;20095;-69
2023/10/23 00:17:40;;;;;;;8.20;4.60;;;6.30;99.90;;;;;;5076792;28;20052;-69
2023/10/23 00:20:09;;;;;;;9.13;4.90;;;6.20;99.90;;;;;;5076905;28;20488;-70
2023/10/23 00:22:36;;;;;;;8.30;4.53;;;6.30;99.90;;;;;;5075876;28;20569;-70
2023/10/23 00:25:03;;;;;;;8.40;5.03;;;6.20;99.90;;;;;;5076531;28;20058;-70
2023/10/23 00:27:30;;;;;;;6.93;4.72;;;6.20;99.90;;;;;;5076613;28;20056;-70
2023/10/23 00:29:57;;;;;;;6.57;4.65;;;7.00;99.90;;;;;;5071613;28;20055;-70
2023/10/23 00:32:24;;;;;;;6.70;4.55;;;6.20;99.90;;;;;;5076098;28;20051;-69
2023/10/23 00:34:51;;;;;;;8.93;5.38;;;6.20;99.90;;;;;;5094446;28;20051;-70
2023/10/23 00:37:19;;;;;;;12.07;5.95;;;6.20;99.90;;;;;;5093704;28;20056;-70
2023/10/23 00:39:46;;;;;;;10.13;4.78;;;6.10;99.90;;;;;;5076249;28;20504;-70
2023/10/23 00:42:13;;;;;;;12.77;5.72;;;6.10;99.90;;;;;;5076098;28;20557;-69
2023/10/23 00:44:40;;;;;;;6.28;4.93;;;6.10;99.90;;;;;;5075574;28;20577;-70
2023/10/23 00:47:07;;;;;;;7.93;4.85;;;6.10;99.90;;;;;;5076174;28;20048;-69
2023/10/23 00:49:34;;;;;;;7.22;4.85;;;6.10;99.90;;;;;;5076343;28;20055;-70
2023/10/23 00:52:02;;;;;;;10.68;5.68;;;6.10;99.90;;;;;;5071420;28;20489;-70
2023/10/23 00:54:32;;;;;;;8.52;5.70;;;6.00;99.90;;;;;;5093934;28;20127;-70
2023/10/23 00:57:00;;;;;;;10.43;4.85;;;6.00;99.90;;;;;;5075963;28;20488;-69
2023/10/23 00:59:27;;;;;;;8.63;5.07;;;6.00;99.90;;;;;;5088832;28;20123;-69
2023/10/23 01:01:54;;;;;;;7.43;4.57;;;6.00;99.90;;;;;;5075661;28;20106;-70
2023/10/23 01:04:21;;;;;;;8.57;5.18;;;5.90;99.90;;;;;;5075738;28;20534;-69
2023/10/23 01:06:50;;;;;;;7.18;4.88;;;6.00;99.90;;;;;;5075377;28;20040;-70
2023/10/23 01:09:17;;;;;;;8.05;4.97;;;5.90;99.90;;;;;;5075604;28;20044;-69
2023/10/23 01:11:45;;;;;;;11.77;6.15;;;5.90;99.90;;;;;;5075223;28;20495;-70
2023/10/23 01:14:12;;;;;;;11.75;6.60;;;5.90;99.90;;;;;;5075813;28;20105;-69
2023/10/23 01:16:39;;;;;;;9.13;5.70;;;5.90;99.90;;;;;;5093657;28;20044;-70
2023/10/23 01:19:06;;;;;;;9.52;5.97;;;5.90;99.90;;;;;;5075145;28;20051;-70
2023/10/23 01:21:32;;;;;;;11.63;6.25;;;6.00;99.90;;;;;;5070491;28;20055;-69
2023/10/23 01:24:00;;;;;;;7.93;5.68;;;6.00;99.90;;;;;;5075408;28;20093;-69
2023/10/23 01:26:28;;;;;;;9.02;5.57;;;6.00;99.90;;;;;;5075067;28;20089;-69
2023/10/23 01:28:55;;;;;;;8.00;5.22;;;5.90;99.90;;;;;;5075192;28;20446;-70
2023/10/23 01:31:22;;;;;;;9.13;5.40;;;5.90;99.90;;;;;;5075489;28;20385;-69
2023/10/23 01:33:49;;;;;;;6.90;5.00;;;5.80;99.90;;;;;;5074628;28;20458;-69
2023/10/23 01:36:16;;;;;;;8.48;5.03;;;5.80;99.90;;;;;;5075187;28;20043;-69
2023/10/23 01:38:43;;;;;;;8.10;5.35;;;5.80;99.90;;;;;;5074813;28;20105;-70
2023/10/23 01:41:10;;;;;;;12.25;6.28;;;5.70;99.90;;;;;;5074571;28;20055;-70
2023/10/23 01:43:38;;;;;;;9.45;5.80;;;5.70;99.90;;;;;;5066650;28;20048;-69
2023/10/23 01:46:05;;;;;;;10.65;5.70;;;5.70;99.90;;;;;;5075132;28;20052;-69
2023/10/23 01:48:32;;;;;;;8.48;4.82;;;5.70;99.90;;;;;;5074446;28;20196;-70
2023/10/23 01:51:01;;;;;;;9.07;5.68;;;5.70;99.90;;;;;;5074878;28;20048;-70
2023/10/23 01:53:28;;;;;;;8.25;5.53;;;5.60;99.90;;;;;;5075001;28;20083;-70
2023/10/23 01:55:55;;;;;;;9.88;6.97;;;5.60;99.90;;;;;;5074385;28;20040;-70
2023/10/23 01:58:22;;;;;;;7.93;5.72;;;5.60;99.90;;;;;;5074758;28;20443;-71
2023/10/23 02:00:51;;;;;;;7.72;5.32;;;5.60;99.90;;;;;;5070642;28;20060;-70
2023/10/23 02:03:17;;;;;;;9.65;5.68;;;5.60;99.90;;;;;;5071093;28;20079;-70
2023/10/23 02:05:46;;;;;;;7.30;4.60;;;5.60;99.90;;;;;;5071521;28;20048;-70
2023/10/23 02:08:13;;;;;;;8.48;6.00;;;5.60;99.90;;;;;;5070539;28;20106;-69
2023/10/23 02:10:40;;;;;;;8.70;5.32;;;5.50;99.90;;;;;;5071090;28;20053;-70
2023/10/23 02:13:06;;;;;;;9.18;5.40;;;5.50;99.90;;;;;;5071011;28;20056;-71
2023/10/23 02:15:33;;;;;;;12.27;6.88;;;5.50;99.90;;;;;;5070507;28;20048;-70
2023/10/23 02:18:03;;;;;;;10.95;7.47;;;5.50;99.90;;;;;;5071326;28;20051;-70
2023/10/23 02:20:28;;;;;;;7.50;5.55;;;5.50;99.90;;;;;;5070801;28;20050;-71
2023/10/23 02:22:55;;;;;;;11.25;7.10;;;5.50;99.90;;;;;;5070618;28;20040;-70
2023/10/23 02:25:22;;;;;;;13.25;7.28;;;5.50;99.90;;;;;;5070854;28;20049;-70
2023/10/23 02:27:49;;;;;;;11.70;7.25;;;5.50;99.90;;;;;;5071001;28;20098;-71
2023/10/23 02:30:16;;;;;;;10.75;6.97;;;5.50;99.90;;;;;;5070526;28;20052;-70
2023/10/23 02:32:43;;;;;;;10.35;7.32;;;5.60;99.90;;;;;;5071107;28;20056;-70
2023/10/23 02:35:11;;;;;;;12.20;7.60;;;5.50;99.90;;;;;;5072119;28;20048;-70
2023/10/23 02:37:38;;;;;;;10.43;7.38;;;5.50;99.90;;;;;;5070318;28;20060;-70
2023/10/23 02:40:06;;;;;;;12.77;8.25;;;5.60;99.90;;;;;;5070751;28;20052;-70
2023/10/23 02:42:33;;;;;;;12.43;7.55;;;5.60;99.90;;;;;;5071177;28;20075;-70
2023/10/23 02:45:00;;;;;;;10.23;7.25;;;5.60;99.90;;;;;;5070200;28;20045;-70
2023/10/23 02:47:26;;;;;;;10.40;7.57;;;5.50;99.90;;;;;;5070775;28;20072;-69
2023/10/23 02:49:54;;;;;;;11.40;7.55;;;5.50;99.90;;;;;;5070497;28;20061;-69
2023/10/23 02:52:22;;;;;;;14.15;7.80;;;5.50;99.90;;;;;;5070577;28;20506;-70
2023/10/23 02:54:50;;;;;;;11.20;7.03;;;5.50;99.90;;;;;;5071633;28;20098;-70
2023/10/23 02:57:17;;;;;;;10.90;7.13;;;5.40;99.90;;;;;;5073465;28;20076;-70
2023/10/23 02:59:47;;;;;;;10.57;6.78;;;5.40;99.90;;;;;;5072540;28;20102;-69
2023/10/23 03:02:14;;;;;;;12.43;8.00;;;5.40;99.90;;;;;;5078109;28;20101;-70
2023/10/23 03:04:42;;;;;;;11.77;7.97;;;5.40;99.90;;;;;;5077833;28;20052;-70
2023/10/23 03:07:09;;;;;;;10.55;7.53;;;5.30;99.90;;;;;;5078339;28;20079;-70
2023/10/23 03:09:37;;;;;;;10.50;6.85;;;5.30;99.90;;;;;;5078229;28;20056;-70
2023/10/23 03:12:05;;;;;;;10.02;6.93;;;5.30;99.90;;;;;;5077360;28;20051;-70
2023/10/23 03:14:32;;;;;;;9.35;7.10;;;5.30;99.90;;;;;;5078012;28;20075;-71
2023/10/23 03:16:59;;;;;;;11.63;6.85;;;5.30;99.90;;;;;;5077852;28;20101;-70
2023/10/23 03:19:26;;;;;;;11.63;8.20;;;5.30;99.90;;;;;;5077015;28;20044;-71
2023/10/23 03:21:53;;;;;;;8.65;6.25;;;5.20;99.90;;;;;;5077703;28;20047;-70
2023/10/23 03:24:20;;;;;;;17.35;9.23;;;5.20;99.90;;;;;;5077567;28;20056;-70
2023/10/23 03:26:48;;;;;;;10.80;7.32;;;5.20;99.90;;;;;;5077307;28;20047;-70
2023/10/23 03:29:15;;;;;;;11.40;7.78;;;5.20;99.90;;;;;;5077394;28;20055;-70
2023/10/23 03:31:42;;;;;;;13.77;8.27;;;5.20;99.90;;;;;;5077889;28;20118;-70
2023/10/23 03:34:09;;;;;;;8.40;6.43;;;5.20;99.90;;;;;;5073260;28;20052;-70
2023/10/23 03:36:36;;;;;;;10.02;6.72;;;5.10;99.90;;;;;;5077559;28;20763;-70
2023/10/23 03:39:03;;;;;;;8.50;6.47;;;5.10;99.90;;;;;;5091774;28;20407;-70
2023/10/23 03:41:30;;;;;;;8.88;6.60;;;5.10;99.90;;;;;;5077039;28;20158;-71
2023/10/23 03:44:01;;;;;;;9.50;6.57;;;5.10;99.90;;;;;;5073428;28;20051;-71
2023/10/23 03:46:28;;;;;;;10.32;7.85;;;5.10;99.90;;;;;;5076867;28;20109;-70
2023/10/23 03:48:58;;;;;;;9.18;6.05;;;5.10;99.90;;;;;;5077473;28;20528;-69
2023/10/23 03:51:25;;;;;;;14.57;9.05;;;5.00;99.90;;;;;;5073426;28;20052;-71
2023/10/23 03:53:52;;;;;;;12.88;8.65;;;5.00;99.90;;;;;;5076827;28;20052;-70
2023/10/23 03:56:19;;;;;;;11.40;9.02;;;5.10;99.90;;;;;;5077155;28;20044;-70
2023/10/23 03:58:46;;;;;;;12.40;7.47;;;5.10;99.90;;;;;;5076836;28;20052;-70
2023/10/23 04:01:14;;;;;;;13.45;8.60;;;5.10;99.90;;;;;;5076409;28;20094;-69
2023/10/23 04:03:41;;;;;;;13.05;8.20;;;5.10;99.90;;;;;;5076996;28;20056;-70
2023/10/23 04:06:08;;;;;;;16.90;9.85;;;5.10;99.90;;;;;;5076978;28;20056;-69
2023/10/23 04:08:35;;;;;;;11.25;9.40;;;5.10;99.90;;;;;;5076471;28;20056;-69
2023/10/23 04:11:03;;;;;;;15.38;10.07;;;5.10;99.90;;;;;;5094981;28;20422;-70
2023/10/23 04:13:30;;;;;;;14.82;9.88;;;5.10;99.90;;;;;;5076952;28;20048;-69
2023/10/23 04:15:59;;;;;;;15.32;10.25;;;5.20;99.90;;;;;;5076236;28;20056;-69
2023/10/23 04:18:27;;;;;;;13.25;10.07;;;5.20;99.90;;;;;;5072811;28;20074;-69
2023/10/23 04:21:03;;;;;;;13.77;10.77;;;5.20;99.90;;;;;;5076803;28;20048;-69
2023/10/23 04:23:30;;;;;;;17.08;10.40;;;5.20;99.90;;;;;;5076001;28;20044;-70
2023/10/23 04:25:57;;;;;;;17.80;10.48;;;5.30;99.90;;;;;;5076418;28;20040;-70
2023/10/23 04:28:25;;;;;;;16.02;10.50;;;5.30;99.90;;;;;;5076335;28;20051;-70
2023/10/23 04:30:52;;;;;;;16.05;10.50;;;5.20;99.90;;;;;;5094413;28;20400;-70
2023/10/23 04:33:21;;;;;;;17.85;11.23;;;5.30;99.90;;;;;;5076348;28;20048;-70
2023/10/23 04:35:51;;;;;;;13.07;9.52;;;5.20;99.90;;;;;;5075668;28;20067;-71
2023/10/23 04:38:18;;;;;;;14.18;8.95;;;5.20;99.90;;;;;;5076126;28;20079;-70
2023/10/23 04:40:45;;;;;;;16.55;10.77;;;5.10;99.90;;;;;;5075748;28;20196;-70
2023/10/23 04:43:12;;;;;;;14.02;9.73;;;5.10;99.90;;;;;;5075645;28;20046;-70
2023/10/23 04:45:40;;;;;;;12.20;8.27;;;5.10;99.90;;;;;;5075785;28;20132;-69
2023/10/23 04:48:07;;;;;;;15.82;10.15;;;5.10;99.90;;;;;;5076284;28;20101;-69
2023/10/23 04:50:35;;;;;;;13.38;9.63;;;5.00;99.90;;;;;;5075255;28;20044;-69
2023/10/23 04:53:03;;;;;;;16.10;9.25;;;5.00;99.90;;;;;;5076228;28;20048;-69
2023/10/23 04:55:33;;;;;;;11.82;8.40;;;4.80;99.90;;;;;;5067440;28;20057;-69
2023/10/23 04:58:00;;;;;;;12.23;8.57;;;5.00;99.90;;;;;;5062299;28;20048;-69
2023/10/23 05:00:27;;;;;;;11.30;7.95;;;5.00;99.90;;;;;;5068573;28;20389;-68
2023/10/23 05:02:57;;;;;;;12.45;8.88;;;5.00;99.90;;;;;;5086103;28;20044;-68
2023/10/23 05:05:24;;;;;;;15.05;8.07;;;5.00;99.90;;;;;;5068269;28;21193;-70
2023/10/23 05:07:51;;;;;;;13.73;8.30;;;4.90;99.90;;;;;;5059929;28;20056;-70
2023/10/23 05:10:19;;;;;;;16.55;10.63;;;4.90;99.90;;;;;;5068722;28;20084;-70
2023/10/23 05:12:49;;;;;;;13.15;8.70;;;4.90;99.90;;;;;;5073275;28;20109;-70
2023/10/23 05:15:16;;;;;;;11.00;8.02;;;4.90;99.90;;;;;;5073092;28;20102;-68
2023/10/23 05:17:44;;;;;;;15.68;9.75;;;4.80;99.90;;;;;;5092129;28;20094;-69
2023/10/23 05:20:12;;;;;;;13.60;9.00;;;4.80;99.90;;;;;;5092584;28;20044;-68
2023/10/23 05:22:39;;;;;;;14.98;9.40;;;4.80;99.90;;;;;;5067637;28;20061;-69
2023/10/23 05:25:08;;;;;;;13.38;9.93;;;5.00;99.90;;;;;;5059238;28;20060;-69
2023/10/23 05:27:36;;;;;;;14.00;8.75;;;4.70;99.90;;;;;;5060843;28;20076;-69
2023/10/23 05:30:03;;;;;;;14.68;8.32;;;4.70;99.90;;;;;;5058606;28;20052;-70
2023/10/23 05:32:30;;;;;;;14.23;9.38;;;4.70;99.90;;;;;;5056401;28;20051;-69
2023/10/23 05:34:57;;;;;;;14.38;9.98;;;4.80;99.90;;;;;;5056934;28;20056;-69
2023/10/23 05:37:24;;;;;;;11.95;8.32;;;4.70;99.90;;;;;;5064201;28;20475;-70
2023/10/23 05:39:51;;;;;;;12.13;8.80;;;4.70;99.90;;;;;;5063822;28;20462;-70
2023/10/23 05:42:18;;;;;;;13.65;9.57;;;4.60;99.90;;;;;;5063369;28;20492;-69
2023/10/23 05:44:46;;;;;;;17.08;10.15;;;4.60;99.90;;;;;;5080970;28;20106;-69
2023/10/23 05:47:13;;;;;;;16.52;10.38;;;4.60;99.90;;;;;;5073942;28;20557;-69
2023/10/23 05:49:40;;;;;;;16.88;10.52;;;4.60;99.90;;;;;;5067066;28;20412;-68
2023/10/23 05:52:07;;;;;;;18.17;10.32;;;4.60;99.90;;;;;;5064624;28;20436;-68
2023/10/23 05:54:33;;;;;;;12.18;8.85;;;4.70;99.90;;;;;;5067483;28;20047;-69
2023/10/23 05:57:00;;;;;;;14.75;9.05;;;4.70;99.90;;;;;;5074017;28;20097;-69
2023/10/23 05:59:27;;;;;;;13.30;10.00;;;4.70;99.90;;;;;;5091355;28;20052;-69
2023/10/23 06:01:55;;;;;;;15.13;9.13;;;4.60;99.90;;;;;;5073021;28;20056;-68
2023/10/23 06:04:22;;;;;;;9.48;7.38;;;4.60;99.90;;;;;;5070855;28;20048;-68
2023/10/23 06:06:49;;;;;;;11.50;7.50;;;4.60;99.90;;;;;;5071068;28;20101;-70
2023/10/23 06:09:17;;;;;;;11.05;7.28;;;4.60;99.90;;;;;;5069925;28;20097;-69
2023/10/23 06:11:44;;;;;;;9.18;7.10;;;4.60;99.90;;;;;;5083940;28;20051;-69
2023/10/23 06:14:11;;;;;;;13.45;7.75;;;4.50;99.90;;;;;;5060775;28;20124;-70
2023/10/23 06:16:38;;;;;;;11.27;7.55;;;4.70;99.90;;;;;;5071767;28;20113;-70
2023/10/23 06:19:06;;;;;;;8.82;6.45;;;4.60;99.90;;;;;;5066168;28;20056;-70
2023/10/23 06:21:33;;;;;;;9.88;7.22;;;4.60;99.90;;;;;;5067738;28;20048;-69
2023/10/23 06:24:00;;;;;;;12.48;7.55;;;4.50;99.90;;;;;;5069040;28;20048;-68
2023/10/23 06:26:28;;;;;;;8.60;6.68;;;4.50;99.90;;;;;;5065643;28;20058;-70
2023/10/23 06:28:55;;;;;;;7.75;5.88;;;4.50;99.90;;;;;;5068529;28;20111;-69
2023/10/23 06:31:22;;;;;;;13.50;7.53;;;4.70;99.90;;;;;;5062050;28;20078;-69
2023/10/23 06:33:51;;;;;;;9.77;7.00;;;4.60;99.90;;;;;;5067845;28;20454;-70
2023/10/23 06:36:19;;;;;;;10.43;8.07;;;4.60;99.90;;;;;;5061197;28;20105;-71
2023/10/23 06:38:46;;;;;;;10.48;7.78;;;4.70;99.90;;;;;;5067073;28;20141;-70
2023/10/23 06:41:13;;;;;;;12.18;7.85;;;4.70;99.90;;;;;;5071357;28;20097;-69
2023/10/23 06:43:41;;;;;;;10.18;8.02;;;4.70;99.90;;;;;;5072386;28;20075;-69
2023/10/23 06:46:08;;;;;;;10.00;7.32;;;4.90;99.90;;;;;;5073254;28;20047;-69
2023/10/23 06:48:35;;;;;;;16.38;9.75;;;4.80;99.90;;;;;;5073744;28;20048;-69
2023/10/23 06:51:03;;;;;;;15.95;10.30;;;4.80;99.90;;;;;;5073122;28;20048;-69
2023/10/23 06:53:31;;;;;;;14.57;10.60;;;4.90;99.90;;;;;;5073880;28;20462;-69
2023/10/23 06:55:58;;;;;;;16.63;11.13;;;5.00;99.90;;;;;;5073853;28;20089;-69
2023/10/23 06:58:25;;;;;;;15.38;10.48;;;5.00;99.90;;;;;;5072256;28;20044;-69
2023/10/23 07:00:52;;;;;;;15.88;10.23;;;5.20;99.90;;;;;;5067782;28;20109;-70
2023/10/23 07:03:19;;;;;;;17.02;11.00;;;5.30;99.90;;;;;;5064531;28;20106;-68
2023/10/23 07:05:47;;;;;;;17.55;11.15;;;7.50;99.90;;;;;;5071414;28;20493;-69
2023/10/23 07:08:14;;;;;;;15.55;10.63;;;5.50;99.90;;;;;;5070267;28;20071;-69
2023/10/23 07:10:42;;;;;;;14.05;10.93;;;5.70;99.90;;;;;;5070981;28;20076;-70
2023/10/23 07:13:09;;;;;;;14.45;11.25;;;5.80;99.90;;;;;;5069928;28;20048;-70
2023/10/23 07:15:36;;;;;;;17.67;11.88;;;5.90;99.90;;;;;;5070551;28;20056;-69
2023/10/23 07:18:04;;;;;;;16.55;11.65;;;6.10;99.90;;;;;;5069635;28;20055;-69
2023/10/23 07:20:31;;;;;;;16.65;12.50;;;6.40;99.90;;;;;;5070171;28;20044;-70
2023/10/23 07:22:58;;;;;;;18.80;11.50;;;7.00;99.90;;;;;;5066074;28;20060;-70
2023/10/23 07:25:25;;;;;;;16.27;10.70;;;7.60;99.90;;;;;;5069714;28;20620;-70
2023/10/23 07:27:54;;;;;;;20.65;13.70;;;8.30;99.90;;;;;;5070914;28;20070;-69
2023/10/23 07:30:23;;;;;;;27.40;12.00;;;9.60;99.90;;;;;;5065802;28;20052;-69
2023/10/23 07:32:50;;;;;;;15.95;9.68;;;10.90;99.90;;;;;;5069891;28;20067;-69
2023/10/23 07:35:17;;;;;;;16.45;10.50;;;12.00;99.90;;;;;;5070418;28;20048;-70
2023/10/23 07:37:44;;;;;;;11.85;7.00;;;13.10;99.90;;;;;;5069919;28;20125;-69
2023/10/23 07:40:12;;;;;;;8.32;6.70;;;14.10;99.90;;;;;;5069853;28;20110;-70
2023/10/23 07:42:39;;;;;;;8.07;6.63;;;14.80;99.90;;;;;;5072209;28;20055;-70
2023/10/23 07:45:09;;;;;;;12.82;6.53;;;15.50;99.90;;;;;;5074039;28;20404;-70
2023/10/23 07:47:36;;;;;;;6.97;5.25;;;16.10;99.90;;;;;;5069753;28;20044;-69
2023/10/23 07:50:04;;;;;;;6.90;5.43;;;16.50;99.90;;;;;;5074582;28;20060;-68
2023/10/23 07:52:32;;;;;;;8.27;5.50;;;17.00;99.90;;;;;;5074181;28;20072;-69
2023/10/23 07:54:59;;;;;;;9.75;5.82;;;17.50;99.90;;;;;;5073255;28;20079;-69
2023/10/23 07:57:29;;;;;;;10.70;5.35;;;18.00;99.90;;;;;;5073605;28;20052;-69
2023/10/23 07:59:56;;;;;;;6.50;4.30;;;18.20;99.90;;;;;;5075930;28;20055;-68
2023/10/23 08:02:26;;;;;;;7.05;4.50;;;18.40;99.90;;;;;;5076558;28;21345;-69
2023/10/23 08:04:53;;;;;;;5.53;4.60;;;18.70;99.90;;;;;;5076641;28;20104;-67
2023/10/23 08:07:20;;;;;;;9.50;4.93;;;19.00;99.90;;;;;;5075581;28;20102;-70
2023/10/23 08:09:47;;;;;;;5.82;4.28;;;19.20;99.90;;;;;;5068114;28;20063;-69
2023/10/23 08:12:14;;;;;;;4.97;4.38;;;19.50;99.90;;;;;;5072882;28;20052;-69
2023/10/23 08:14:41;;;;;;;6.10;4.65;;;19.90;99.90;;;;;;5072340;28;20044;-69
2023/10/23 08:17:08;;;;;;;6.30;4.18;;;20.20;99.90;;;;;;5084522;28;20479;-69
2023/10/23 08:19:36;;;;;;;5.80;4.30;;;20.90;99.90;;;;;;5069528;28;20064;-68
2023/10/23 08:22:03;;;;;;;5.82;4.07;;;21.30;99.90;;;;;;5068009;28;20105;-69
2023/10/23 08:24:30;;;;;;;6.15;4.40;;;21.10;99.90;;;;;;5071791;28;20043;-68
2023/10/23 08:26:56;;;;;;;7.45;4.25;;;21.20;99.60;;;;;;5070138;28;20116;-69
2023/10/23 08:29:28;;;;;;;5.95;3.90;;;21.50;99.20;;;;;;5088784;28;20048;-69
2023/10/23 08:31:57;;;;;;;6.25;4.35;;;21.70;98.10;;;;;;5067791;28;20057;-69
2023/10/23 08:34:24;;;;;;;4.53;4.07;;;22.00;97.60;;;;;;5073298;28;20408;-69
2023/10/23 08:36:52;;;;;;;5.13;3.50;;;22.30;96.70;;;;;;5069460;28;20052;-69
2023/10/23 08:39:19;;;;;;;14.32;4.43;;;22.40;95.50;;;;;;5083995;28;20381;-69
2023/10/23 08:41:48;;;;;;;5.35;3.95;;;22.70;95.50;;;;;;5091538;28;20418;-69
2023/10/23 08:44:16;;;;;;;5.15;3.42;;;23.00;95.20;;;;;;5071700;28;20047;-68
2023/10/23 08:46:43;;;;;;;6.28;3.80;;;23.50;94.40;;;;;;5073514;28;20491;-69
2023/10/23 08:49:10;;;;;;;4.95;3.58;;;23.40;93.80;;;;;;5073488;28;20051;-69
2023/10/23 08:51:41;;;;;;;5.57;3.90;;;23.50;93.00;;;;;;5072672;28;20055;-70
2023/10/23 08:54:13;;;;;;;4.85;3.75;;;23.80;91.40;;;;;;5090385;28;20067;-68
2023/10/23 08:56:43;;;;;;;7.57;4.00;;;23.90;91.60;;;;;;5070830;28;20451;-69
2023/10/23 08:59:11;;;;;;;6.22;4.18;;;24.60;91.80;;;;;;5090573;28;20073;-69
2023/10/23 09:01:38;;;;;;;5.43;3.63;;;24.60;91.90;;;;;;5072211;28;20121;-69
2023/10/23 09:04:05;;;;;;;4.68;3.50;;;24.80;90.70;;;;;;5073654;28;20568;-69
2023/10/23 09:06:32;;;;;;;5.03;3.88;;;24.60;90.60;;;;;;5088223;28;20081;-69
2023/10/23 09:09:00;;;;;;;4.47;3.40;;;24.70;90.60;;;;;;5071659;28;20416;-69
2023/10/23 09:11:41;;;;;;;6.03;3.35;;;25.00;90.10;;;;;;5071437;28;20052;-70
2023/10/23 09:14:08;;;;;;;4.85;3.15;;;25.40;86.60;;;;;;5069237;28;20063;-70
2023/10/23 09:16:35;;;;;;;3.88;3.03;;;25.30;89.50;;;;;;5072220;28;20056;-70
2023/10/23 09:19:02;;;;;;;6.72;3.28;;;25.60;88.60;;;;;;5091222;28;20586;-69
2023/10/23 09:21:30;;;;;;;4.28;3.20;;;25.70;88.50;;;;;;5089961;28;20080;-70
2023/10/23 09:24:00;;;;;;;4.15;2.88;;;25.80;87.60;;;;;;5072770;28;20052;-69
2023/10/23 09:26:27;;;;;;;3.97;2.90;;;26.30;86.30;;;;;;5073329;28;20462;-69
2023/10/23 09:28:55;;;;;;;5.53;3.00;;;26.60;86.60;;;;;;5072521;28;20044;-69
2023/10/23 09:31:23;;;;;;;5.03;2.92;;;25.80;85.30;;;;;;5070441;28;20056;-70
2023/10/23 09:33:51;;;;;;;4.30;3.33;;;25.70;86.70;;;;;;5069010;28;20048;-69
2023/10/23 09:36:18;;;;;;;5.18;2.90;;;25.70;85.90;;;;;;5071462;28;20044;-69
2023/10/23 09:38:57;;;;;;;5.40;2.88;;;25.80;85.50;;;;;;5070668;28;21242;-69
2023/10/23 09:41:23;;;;;;;3.80;2.25;;;26.00;82.90;;;;;;5070099;28;20075;-69
2023/10/23 09:43:52;;;;;;;4.32;2.40;;;25.80;84.40;;;;;;5088184;28;20074;-70
2023/10/23 09:46:24;;;;;;;3.30;2.33;;;26.00;84.20;;;;;;5066308;28;20568;-69
2023/10/23 09:48:52;;;;;;;3.25;2.50;;;27.00;83.80;;;;;;5091131;28;20500;-69
2023/10/23 09:51:24;;;;;;;4.82;2.80;;;26.90;83.10;;;;;;5070874;28;20056;-69
2023/10/23 09:53:58;;;;;;;5.25;2.63;;;26.50;83.50;;;;;;5072162;28;20052;-69
2023/10/23 09:56:29;;;;;;;4.00;2.67;;;26.30;83.90;;;;;;5088550;28;20788;-69
2023/10/23 09:58:59;;;;;;;5.15;2.70;;;26.80;83.70;;;;;;5071861;28;20040;-69
2023/10/23 10:01:35;;;;;;;3.50;2.53;;;26.30;82.80;;;;;;5067760;28;20059;-69
2023/10/23 10:04:12;;;;;;;3.55;2.30;;;26.40;81.90;;;;;;5063045;28;20075;-69
2023/10/23 10:06:42;;;;;;;5.30;2.70;;;26.30;82.50;;;;;;5068944;28;20056;-69
2023/10/23 10:09:13;;;;;;;3.72;2.50;;;26.90;83.10;;;;;;5067483;28;20053;-70
2023/10/23 10:11:42;;;;;;;5.55;2.42;;;27.00;82.70;;;;;;5065461;28;20052;-69
2023/10/23 10:14:10;;;;;;;3.73;2.50;;;26.90;83.00;;;;;;5068764;28;20052;-70
2023/10/23 10:16:39;;;;;;;4.07;2.30;;;26.20;82.60;;;;;;5068864;28;20056;-70
2023/10/23 10:19:07;;;;;;;4.47;2.20;;;26.50;82.60;;;;;;5064440;28;20408;-70
2023/10/23 10:21:40;;;;;;;4.55;2.10;;;26.70;82.90;;;;;;5063449;28;20074;-69
2023/10/23 10:24:10;;;;;;;3.88;2.30;;;26.80;82.90;;;;;;5066250;28;20102;-70
2023/10/23 10:26:37;;;;;;;3.75;1.90;;;27.00;82.00;;;;;;5066532;28;20098;-69
2023/10/23 10:29:04;;;;;;;2.80;1.80;;;27.00;80.80;;;;;;5065121;28;20044;-69
2023/10/23 10:32:06;;;;;;;3.05;1.90;;;27.60;81.30;;;;;;5067088;28;20056;-69
2023/10/23 10:34:35;;;;;;;2.90;1.77;;;27.20;77.60;;;;;;5066202;28;20045;-69
2023/10/23 10:37:05;;;;;;;3.30;2.08;;;27.60;79.40;;;;;;5061540;28;20123;-69
2023/10/23 10:40:03;;;;;;;3.42;1.67;;;27.30;80.40;;;;;;5063549;28;20052;-70
2023/10/23 10:42:31;;;;;;;3.43;1.70;;;26.90;78.00;;;;;;5066270;28;20521;-70
2023/10/23 10:44:59;;;;;;;2.40;1.35;;;26.90;80.30;;;;;;5064542;28;20049;-69
2023/10/23 10:47:37;;;;;;;2.58;1.40;;;27.10;79.80;;;;;;5065303;28;20111;-70
2023/10/23 10:50:05;;;;;;;4.53;1.67;;;27.00;77.10;;;;;;5067836;28;20072;-69
2023/10/23 10:52:35;;;;;;;3.03;1.45;;;27.10;79.30;;;;;;5055429;28;20049;-69
2023/10/23 10:55:02;;;;;;;2.28;1.10;;;27.50;78.40;;;;;;5062863;28;20397;-69
2023/10/23 10:57:31;;;;;;;2.25;1.30;;;27.20;77.90;;;;;;5065815;28;20057;-69
2023/10/23 10:59:59;;;;;;;2.58;1.08;;;26.80;78.20;;;;;;5071110;28;20097;-69
2023/10/23 11:02:27;;;;;;;5.22;1.05;;;26.50;77.60;;;;;;5071763;28;20051;-69
2023/10/23 11:04:56;;;;;;;2.92;1.40;;;26.90;77.20;;;;;;5073846;28;20056;-70
2023/10/23 11:07:24;;;;;;;2.35;0.98;;;26.30;78.60;;;;;;5070510;28;20052;-69
2023/10/23 11:09:51;;;;;;;3.17;0.80;;;26.40;78.70;;;;;;5073101;28;20036;-70
2023/10/23 11:12:19;;;;;;;2.35;0.80;;;25.90;79.30;;;;;;5092295;28;20450;-70
2023/10/23 11:14:46;;;;;;;2.97;0.82;;;26.10;78.70;;;;;;5087354;28;20044;-70
2023/10/23 11:17:14;;;;;;;3.17;1.02;;;26.10;78.10;;;;;;5092001;28;20496;-69
2023/10/23 11:19:42;;;;;;;2.15;0.90;;;26.30;78.40;;;;;;5096009;28;20093;-70
2023/10/23 11:22:12;;;;;;;1.35;0.52;;;26.30;78.10;;;;;;5077872;28;20100;-70
2023/10/23 11:24:40;;;;;;;1.92;0.82;;;26.10;77.40;;;;;;5077647;28;20408;-69
2023/10/23 11:27:07;;;;;;;2.55;1.00;;;26.60;77.10;;;;;;5073651;28;20047;-69
2023/10/23 11:29:41;;;;;;;1.92;0.90;;;25.90;76.80;;;;;;5077717;28;20040;-69
2023/10/23 11:32:08;;;;;;;2.08;0.75;;;25.60;77.10;;;;;;5077279;28;20416;-69
2023/10/23 11:34:37;;;;;;;2.40;0.80;;;25.90;77.90;;;;;;5074149;28;20056;-69
2023/10/23 11:37:06;;;;;;;1.90;0.90;;;26.40;77.30;;;;;;5077747;28;20075;-69
2023/10/23 11:39:36;;;;;;;3.60;1.35;;;26.20;77.80;;;;;;5076926;28;20048;-69
2023/10/23 11:42:04;;;;;;;1.98;1.02;;;26.40;77.20;;;;;;5077653;28;20052;-70
2023/10/23 11:44:32;;;;;;;2.95;1.08;;;25.70;78.90;;;;;;5077626;28;20055;-70
2023/10/23 11:47:00;;;;;;;3.00;1.40;;;25.80;79.60;;;;;;5076405;28;20055;-70
2023/10/23 11:49:26;;;;;;;4.90;1.58;;;25.50;80.40;;;;;;5077587;28;20036;-69
2023/10/23 11:51:56;;;;;;;3.10;1.70;;;25.60;80.60;;;;;;5094640;28;20044;-70
2023/10/23 11:54:25;;;;;;;4.28;1.75;;;25.70;81.20;;;;;;5077205;28;20048;-70
2023/10/23 11:56:56;;;;;;;2.40;1.35;;;25.60;81.30;;;;;;5056123;28;20052;-70
2023/10/23 11:59:23;;;;;;;3.03;1.10;;;25.10;82.00;;;;;;5087009;28;20044;-70
2023/10/23 12:01:52;;;;;;;2.53;1.38;;;24.90;81.60;;;;;;5071677;28;20063;-69
2023/10/23 12:04:19;;;;;;;1.80;0.90;;;24.90;80.10;;;;;;5061926;28;20045;-70
2023/10/23 12:06:46;;;;;;;1.98;1.00;;;24.60;80.30;;;;;;5070007;28;20099;-70
2023/10/23 12:09:13;;;;;;;2.53;1.20;;;24.60;81.00;;;;;;5072068;28;20056;-69
2023/10/23 12:11:41;;;;;;;2.67;1.30;;;24.70;80.10;;;;;;5068071;28;20064;-70
2023/10/23 12:14:09;;;;;;;3.22;1.45;;;24.30;80.80;;;;;;5068781;28;20052;-69
2023/10/23 12:16:36;;;;;;;3.75;1.45;;;23.50;82.50;;;;;;5072173;28;20488;-69
2023/10/23 12:19:04;;;;;;;2.60;1.30;;;23.20;84.40;;;;;;5067276;28;20481;-69
2023/10/23 12:21:30;;;;;;;11.65;4.15;;;23.30;84.50;;;;;;5072385;28;20090;-70
2023/10/23 12:23:57;;;;;;;3.95;1.17;;;23.00;85.10;;;;;;5068245;28;20052;-70
2023/10/23 12:26:25;;;;;;;6.35;1.88;;;23.00;85.70;;;;;;5069661;28;20057;-70
2023/10/23 12:28:52;;;;;;;3.17;1.30;;;22.60;86.70;;;;;;5066894;28;20131;-70
2023/10/23 12:31:20;;;;;;;3.15;1.63;;;22.50;87.20;;;;;;5070711;28;20064;-70
2023/10/23 12:33:48;;;;;;;5.43;1.40;;;22.60;87.10;;;;;;5069976;28;20098;-71
2023/10/23 12:36:15;;;;;;;6.03;2.10;;;22.50;87.50;;;;;;5069770;28;20060;-70
2023/10/23 12:38:42;;;;;;;2.67;1.60;;;22.40;87.70;;;;;;5069073;28;20496;-70
2023/10/23 12:41:09;;;;;;;3.75;1.83;;;22.10;87.30;;;;;;5069234;28;20447;-70
2023/10/23 12:43:36;;;;;;;5.10;2.35;;;22.10;87.20;;;;;;5071032;28;20051;-69
2023/10/23 12:46:03;;;;;;;3.63;2.20;;;21.70;88.00;;;;;;5069380;28;20056;-70
2023/10/23 12:48:31;;;;;;;3.35;2.50;;;21.40;89.00;;;;;;5070018;28;20437;-70
2023/10/23 12:50:58;;;;;;;6.15;2.50;;;21.20;89.90;;;;;;5067904;28;20040;-71